createdAt,value
2023-12-05T00:01:59.155Z,15.30
2023-12-05T00:04:25.934Z,14.95
2023-12-05T00:06:52.689Z,18.15
2023-12-05T00:09:19.418Z,16.05
2023-12-05T00:11:46.150Z,22.15
2023-12-05T00:14:12.783Z,18.52
2023-12-05T00:16:39.519Z,13.63
2023-12-05T00:19:06.506Z,18.35
2023-12-05T00:21:33.341Z,16.98
2023-12-05T00:24:00.153Z,15.40
2023-12-05T00:26:26.877Z,19.95
2023-12-05T00:28:53.681Z,15.77
2023-12-05T00:31:20.621Z,14.35
2023-12-05T00:33:48.761Z,16.55
2023-12-05T00:36:15.749Z,16.40
2023-12-05T00:38:42.828Z,15.75
2023-12-05T00:41:10.209Z,17.05
2023-12-05T00:43:38.067Z,15.30
2023-12-05T00:46:05.167Z,17.15
2023-12-05T00:48:31.901Z,18.15
2023-12-05T00:50:58.881Z,20.52
2023-12-05T00:53:25.939Z,15.20
2023-12-05T00:55:53.023Z,16.75
2023-12-05T00:58:20.600Z,14.88
2023-12-05T01:00:47.352Z,16.83
2023-12-05T01:03:14.901Z,18.92
2023-12-05T01:05:42.462Z,19.60
2023-12-05T01:08:09.279Z,16.00
2023-12-05T01:10:36.256Z,17.50
2023-12-05T01:13:03.883Z,16.25
2023-12-05T01:15:30.799Z,17.10
2023-12-05T01:17:57.577Z,20.98
2023-12-05T01:20:24.584Z,18.55
2023-12-05T01:22:51.260Z,17.17
2023-12-05T01:25:18.403Z,17.00
2023-12-05T01:27:46.345Z,20.48
2023-12-05T01:30:13.491Z,20.38
2023-12-05T01:32:40.214Z,18.58
2023-12-05T01:35:07.416Z,18.52
2023-12-05T01:37:34.069Z,19.00
2023-12-05T01:40:01.158Z,20.25
2023-12-05T01:42:27.949Z,18.17
2023-12-05T01:44:54.696Z,20.98
2023-12-05T01:47:22.418Z,18.02
2023-12-05T01:49:49.442Z,18.52
2023-12-05T01:52:17.227Z,17.00
2023-12-05T01:54:44.714Z,19.98
2023-12-05T01:57:11.879Z,22.45
2023-12-05T01:59:38.666Z,18.27
2023-12-05T02:02:05.409Z,24.50
2023-12-05T02:04:33.136Z,18.20
2023-12-05T02:07:00.779Z,20.73
2023-12-05T02:09:27.552Z,16.83
2023-12-05T02:11:54.320Z,20.25
2023-12-05T02:14:21.433Z,18.35
2023-12-05T02:17:13.246Z,22.05
2023-12-05T02:19:53.575Z,19.25
2023-12-05T02:22:57.601Z,20.77
2023-12-05T02:25:24.550Z,17.88
2023-12-05T02:27:52.366Z,19.20
2023-12-05T02:30:19.274Z,17.95
2023-12-05T02:32:46.139Z,17.08
2023-12-05T02:35:14.106Z,20.25
2023-12-05T02:38:08.779Z,20.38
2023-12-05T02:40:47.907Z,20.48
2023-12-05T02:43:26.151Z,22.73
2023-12-05T02:46:08.316Z,20.35
2023-12-05T02:48:37.582Z,21.55
2023-12-05T02:51:04.987Z,20.73
2023-12-05T02:53:31.850Z,17.77
2023-12-05T02:55:59.007Z,20.60
2023-12-05T02:58:25.717Z,21.85
2023-12-05T03:00:52.486Z,19.55
2023-12-05T03:03:19.366Z,19.08
2023-12-05T03:05:46.212Z,20.17
2023-12-05T03:08:13.054Z,19.05
2023-12-05T03:10:40.964Z,20.30
2023-12-05T03:13:07.693Z,25.98
2023-12-05T03:15:34.334Z,19.80
2023-12-05T03:18:01.287Z,20.20
2023-12-05T03:20:28.646Z,24.27
2023-12-05T03:22:55.511Z,24.10
2023-12-05T03:25:22.429Z,19.15
2023-12-05T03:27:49.120Z,27.13
2023-12-05T03:30:15.944Z,19.63
2023-12-05T03:32:42.781Z,23.30
2023-12-05T03:35:09.609Z,20.58
2023-12-05T03:37:36.286Z,22.88
2023-12-05T03:40:03.272Z,25.58
2023-12-05T03:42:30.227Z,20.17
2023-12-05T03:44:56.900Z,24.08
2023-12-05T03:47:23.766Z,25.27
2023-12-05T03:49:50.431Z,21.98
2023-12-05T03:52:17.280Z,23.13
2023-12-05T03:54:43.999Z,24.38
2023-12-05T03:57:10.676Z,22.50
2023-12-05T03:59:37.295Z,22.70
2023-12-05T04:02:04.230Z,21.90
2023-12-05T04:04:31.128Z,23.85
2023-12-05T04:06:57.961Z,26.58
2023-12-05T04:09:24.727Z,19.65
2023-12-05T04:11:51.322Z,28.33
2023-12-05T04:14:18.183Z,22.25
2023-12-05T04:16:44.879Z,25.50
2023-12-05T04:19:11.730Z,25.75
2023-12-05T04:21:38.507Z,24.35
2023-12-05T04:24:07.393Z,22.02
2023-12-05T04:26:34.024Z,24.17
2023-12-05T04:29:00.777Z,27.52
2023-12-05T04:31:30.649Z,28.10
2023-12-05T04:33:57.573Z,30.38
2023-12-05T04:36:25.544Z,22.45
2023-12-05T04:38:52.381Z,27.00
2023-12-05T04:41:19.146Z,29.02
2023-12-05T04:43:46.133Z,27.08
2023-12-05T04:46:12.860Z,26.98
2023-12-05T04:48:39.683Z,24.85
2023-12-05T04:51:06.534Z,24.85
2023-12-05T04:53:33.992Z,26.05
2023-12-05T04:56:00.792Z,29.65
2023-12-05T04:58:28.008Z,24.42
2023-12-05T05:00:56.659Z,23.98
2023-12-05T05:03:25.255Z,24.25
2023-12-05T05:05:52.017Z,31.38
2023-12-05T05:08:18.731Z,27.90
2023-12-05T05:10:45.435Z,25.25
2023-12-05T05:13:12.148Z,29.08
2023-12-05T05:15:38.912Z,25.63
2023-12-05T05:18:05.865Z,27.35
2023-12-05T05:20:32.657Z,29.75
2023-12-05T05:22:59.333Z,27.13
2023-12-05T05:25:26.039Z,30.98
2023-12-05T05:27:52.804Z,29.05
2023-12-05T05:30:19.497Z,27.42
2023-12-05T05:32:46.348Z,26.90
2023-12-05T05:35:13.168Z,33.67
2023-12-05T05:37:39.897Z,32.92
2023-12-05T05:40:08.144Z,30.33
2023-12-05T05:42:35.155Z,30.00
2023-12-05T05:45:02.034Z,27.75
2023-12-05T05:47:29.814Z,32.20
2023-12-05T05:49:58.553Z,27.80
2023-12-05T05:52:25.210Z,31.70
2023-12-05T05:54:52.087Z,31.48
2023-12-05T05:57:19.163Z,33.00
2023-12-05T05:59:45.922Z,29.63
2023-12-05T06:02:13.557Z,30.30
2023-12-05T06:04:44.504Z,30.08
2023-12-05T06:07:11.355Z,34.22
2023-12-05T06:09:38.106Z,29.42
2023-12-05T06:12:06.235Z,34.30
2023-12-05T06:14:32.898Z,34.78
2023-12-05T06:16:59.641Z,36.47
2023-12-05T06:19:26.849Z,33.88
2023-12-05T06:21:54.233Z,33.95
2023-12-05T06:24:21.183Z,29.85
2023-12-05T06:26:47.859Z,35.83
2023-12-05T06:29:14.696Z,29.63
2023-12-05T06:31:41.404Z,33.58
2023-12-05T06:34:08.771Z,34.08
2023-12-05T06:36:35.646Z,29.92
2023-12-05T06:39:02.491Z,34.10
2023-12-05T06:41:29.143Z,36.13
2023-12-05T06:43:56.084Z,35.70
2023-12-05T06:46:23.145Z,31.50
2023-12-05T06:48:50.015Z,34.47
2023-12-05T06:51:20.304Z,31.13
2023-12-05T06:53:50.714Z,38.70
2023-12-05T06:56:19.586Z,33.33
2023-12-05T06:58:46.603Z,32.03
2023-12-05T07:01:13.361Z,37.80
2023-12-05T07:03:47.334Z,34.55
2023-12-05T07:06:17.736Z,36.28
2023-12-05T07:08:44.788Z,32.22
2023-12-05T07:11:11.593Z,35.10
2023-12-05T07:13:38.241Z,36.63
2023-12-05T07:16:05.628Z,38.45
2023-12-05T07:18:32.694Z,39.58
2023-12-05T07:20:59.693Z,41.88
2023-12-05T07:23:26.335Z,39.42
2023-12-05T07:25:57.427Z,34.85
2023-12-05T07:28:24.650Z,45.58
2023-12-05T07:30:53.060Z,36.70
2023-12-05T07:33:20.664Z,34.97
2023-12-05T07:35:47.905Z,34.78
2023-12-05T07:38:14.560Z,38.10
2023-12-05T07:40:41.221Z,35.60
2023-12-05T07:43:08.192Z,45.95
2023-12-05T07:45:35.342Z,38.08
2023-12-05T07:48:02.101Z,45.67
2023-12-05T07:50:28.833Z,36.20
2023-12-05T07:52:56.058Z,38.47
2023-12-05T07:55:22.668Z,35.63
2023-12-05T07:57:50.550Z,37.47
2023-12-05T08:00:18.360Z,39.63
2023-12-05T08:02:45.370Z,38.75
2023-12-05T08:05:12.377Z,37.90
2023-12-05T08:07:39.867Z,38.35
2023-12-05T08:10:07.550Z,40.50
2023-12-05T08:12:35.029Z,41.15
2023-12-05T08:15:02.302Z,41.53
2023-12-05T08:17:28.927Z,41.30
2023-12-05T08:19:56.406Z,39.72
2023-12-05T08:22:23.228Z,39.38
2023-12-05T08:24:53.129Z,36.92
2023-12-05T08:27:20.006Z,39.92
2023-12-05T08:29:46.929Z,40.15
2023-12-05T08:32:13.633Z,41.92
2023-12-05T08:34:40.484Z,39.55
2023-12-05T08:37:07.347Z,40.58
2023-12-05T08:39:34.091Z,43.55
2023-12-05T08:42:00.892Z,38.30
2023-12-05T08:44:28.265Z,44.38
2023-12-05T08:46:55.151Z,38.40
2023-12-05T08:49:22.029Z,38.28
2023-12-05T08:51:48.923Z,40.83
2023-12-05T08:54:16.698Z,38.95
2023-12-05T08:56:43.394Z,36.92
2023-12-05T08:59:10.047Z,39.97
2023-12-05T09:01:36.846Z,38.30
2023-12-05T09:04:04.674Z,42.88
2023-12-05T09:06:31.739Z,41.03
2023-12-05T09:08:59.889Z,43.65
2023-12-05T09:11:27.450Z,36.15
2023-12-05T09:13:54.114Z,39.88
2023-12-05T09:16:21.467Z,41.03
2023-12-05T09:18:48.349Z,42.00
2023-12-05T09:21:15.379Z,42.30
2023-12-05T09:23:41.995Z,36.88
2023-12-05T09:26:08.673Z,41.83
2023-12-05T09:28:35.930Z,38.85
2023-12-05T09:31:02.687Z,37.28
2023-12-05T09:33:29.381Z,43.45
2023-12-05T09:35:56.282Z,44.50
2023-12-05T09:38:23.041Z,38.38
2023-12-05T09:40:52.783Z,39.70
2023-12-05T09:43:26.233Z,39.88
2023-12-05T09:46:05.364Z,42.35
2023-12-05T09:48:39.885Z,41.42
2023-12-05T09:51:09.329Z,41.70
2023-12-05T09:53:36.840Z,39.17
2023-12-05T09:56:03.876Z,43.78
2023-12-05T09:58:30.757Z,54.20
2023-12-05T10:00:58.063Z,40.72
2023-12-05T10:03:25.305Z,40.92
2023-12-05T10:05:53.897Z,40.72
2023-12-05T10:08:22.375Z,44.00
2023-12-05T10:10:49.936Z,42.83
2023-12-05T10:13:18.727Z,42.08
2023-12-05T10:15:45.600Z,39.65
2023-12-05T10:18:12.382Z,38.78
2023-12-05T10:20:39.757Z,41.33
2023-12-05T10:23:06.662Z,41.17
2023-12-05T10:25:33.651Z,47.63
2023-12-05T10:28:05.208Z,38.67
2023-12-05T10:30:38.320Z,41.85
2023-12-05T10:33:17.484Z,40.72
2023-12-05T10:35:45.869Z,48.47
2023-12-05T10:38:21.277Z,36.83
2023-12-05T10:40:58.394Z,42.05
2023-12-05T10:43:27.206Z,43.13
2023-12-05T10:45:55.771Z,35.35
2023-12-05T10:48:26.249Z,38.70
2023-12-05T10:50:53.115Z,45.30
2023-12-05T10:53:20.340Z,42.80
2023-12-05T10:55:47.252Z,41.70
2023-12-05T10:58:15.222Z,39.08
2023-12-05T11:00:42.114Z,39.72
2023-12-05T11:03:09.146Z,39.92
2023-12-05T11:05:36.342Z,44.67
2023-12-05T11:08:05.138Z,47.40
2023-12-05T11:10:32.127Z,39.25
2023-12-05T11:13:03.031Z,39.50
2023-12-05T11:15:38.192Z,42.88
2023-12-05T11:18:19.940Z,45.20
2023-12-05T11:21:04.504Z,40.17
2023-12-05T11:23:37.973Z,42.17
2023-12-05T11:26:44.731Z,40.45
2023-12-05T11:29:38.068Z,42.75
2023-12-05T11:32:26.347Z,40.72
2023-12-05T11:35:18.376Z,38.72
2023-12-05T11:38:06.435Z,44.95
2023-12-05T11:40:33.124Z,46.35
2023-12-05T11:43:10.895Z,45.72
2023-12-05T11:45:44.754Z,43.22
2023-12-05T11:48:14.450Z,44.30
2023-12-05T11:50:42.772Z,44.25
2023-12-05T11:53:10.869Z,39.47
2023-12-05T11:55:41.824Z,40.10
2023-12-05T11:58:33.557Z,40.88
2023-12-05T12:01:11.315Z,42.38
2023-12-05T12:03:49.508Z,41.05
2023-12-05T12:06:26.891Z,44.58
2023-12-05T12:08:59.231Z,40.80
2023-12-05T12:11:25.929Z,39.28
2023-12-05T12:13:52.772Z,43.72
2023-12-05T12:16:20.916Z,40.95
2023-12-05T12:18:53.634Z,43.08
2023-12-05T12:21:29.793Z,45.45
2023-12-05T12:23:58.865Z,38.92
2023-12-05T12:26:25.706Z,48.03
2023-12-05T12:28:52.917Z,42.65
2023-12-05T12:31:29.211Z,42.80
2023-12-05T12:33:58.340Z,42.22
2023-12-05T12:36:26.524Z,41.83
2023-12-05T12:38:55.225Z,41.13
2023-12-05T12:41:22.037Z,47.13
2023-12-05T12:43:48.728Z,38.88
2023-12-05T12:46:15.423Z,43.50
2023-12-05T12:48:43.635Z,39.60
2023-12-05T12:51:11.574Z,40.38
2023-12-05T12:53:38.336Z,42.40
2023-12-05T12:56:07.979Z,41.38
2023-12-05T12:58:37.805Z,43.28
2023-12-05T13:01:05.193Z,40.45
2023-12-05T13:03:33.758Z,38.53
2023-12-05T13:06:01.951Z,38.47
2023-12-05T13:08:29.078Z,44.53
2023-12-05T13:10:56.707Z,32.22
2023-12-05T13:13:23.474Z,37.45
2023-12-05T13:15:50.360Z,35.45
2023-12-05T13:18:17.333Z,39.70
2023-12-05T13:20:52.826Z,46.40
2023-12-05T13:23:20.791Z,37.40
2023-12-05T13:25:47.873Z,40.75
2023-12-05T13:28:14.904Z,47.15
2023-12-05T13:30:43.090Z,39.03
2023-12-05T13:33:12.973Z,41.72
2023-12-05T13:35:40.965Z,42.22
2023-12-05T13:38:09.055Z,38.60
2023-12-05T13:40:35.925Z,40.63
2023-12-05T13:43:02.976Z,38.83
2023-12-05T13:45:29.836Z,45.78
2023-12-05T13:47:58.899Z,38.13
2023-12-05T13:50:26.882Z,39.50
2023-12-05T13:52:53.802Z,33.10
2023-12-05T13:55:20.501Z,39.22
2023-12-05T13:57:47.250Z,39.67
2023-12-05T14:00:16.149Z,35.22
2023-12-05T14:02:42.960Z,38.65
2023-12-05T14:05:09.986Z,37.15
2023-12-05T14:07:36.853Z,43.72
2023-12-05T14:10:04.063Z,37.65
2023-12-05T14:12:30.844Z,34.92
2023-12-05T14:14:57.611Z,37.55
2023-12-05T14:17:24.416Z,45.72
2023-12-05T14:19:52.513Z,35.58
2023-12-05T14:22:19.452Z,33.78
2023-12-05T14:24:46.417Z,37.00
2023-12-05T14:27:13.162Z,38.60
2023-12-05T14:29:39.881Z,38.25
2023-12-05T14:32:07.505Z,40.58
2023-12-05T14:34:34.281Z,35.22
2023-12-05T14:37:01.561Z,38.35
2023-12-05T14:39:28.382Z,38.28
2023-12-05T14:41:55.189Z,36.47
2023-12-05T14:44:22.016Z,37.30
2023-12-05T14:46:48.694Z,37.38
2023-12-05T14:49:17.351Z,41.30
2023-12-05T14:51:44.738Z,37.72
2023-12-05T14:54:11.510Z,36.85
2023-12-05T14:56:39.960Z,34.40
2023-12-05T14:59:06.870Z,38.45
2023-12-05T15:01:33.833Z,39.53
2023-12-05T15:04:01.008Z,37.78
2023-12-05T15:06:27.780Z,36.92
2023-12-05T15:08:56.606Z,39.13
2023-12-05T15:11:26.913Z,40.47
2023-12-05T15:13:53.747Z,38.25
2023-12-05T15:16:21.156Z,38.55
2023-12-05T15:18:48.164Z,39.88
2023-12-05T15:21:15.780Z,42.03
2023-12-05T15:23:52.115Z,40.15
2023-12-05T15:26:22.242Z,41.35
2023-12-05T15:28:48.870Z,34.17
2023-12-05T15:31:16.675Z,35.95
2023-12-05T15:33:44.021Z,36.25
2023-12-05T15:36:14.354Z,43.53
2023-12-05T15:38:45.391Z,35.42
2023-12-05T15:41:14.082Z,35.83
2023-12-05T15:43:42.958Z,41.53
2023-12-05T15:46:09.950Z,38.40
2023-12-05T15:48:44.470Z,36.10
2023-12-05T15:51:13.581Z,42.47
2023-12-05T15:53:41.043Z,37.60
2023-12-05T15:56:08.687Z,36.45
2023-12-05T15:58:35.493Z,40.28
2023-12-05T16:01:02.428Z,39.83
2023-12-05T16:03:31.939Z,38.95
2023-12-05T16:06:00.145Z,39.90
2023-12-05T16:08:27.190Z,40.70
2023-12-05T16:10:54.032Z,38.67
2023-12-05T16:13:21.497Z,36.58
2023-12-05T16:15:48.947Z,35.05
2023-12-05T16:18:16.210Z,36.20
2023-12-05T16:20:43.170Z,41.05
2023-12-05T16:23:09.924Z,40.08
2023-12-05T16:25:36.981Z,33.58
2023-12-05T16:28:04.271Z,38.03
2023-12-05T16:30:31.552Z,40.72
2023-12-05T16:32:58.635Z,36.85
2023-12-05T16:35:25.760Z,41.97
2023-12-05T16:37:52.483Z,41.25
2023-12-05T16:40:19.220Z,43.00
2023-12-05T16:42:46.087Z,37.33
2023-12-05T16:45:12.877Z,39.97
2023-12-05T16:47:40.997Z,40.72
2023-12-05T16:50:08.532Z,39.10
2023-12-05T16:52:35.301Z,37.97
2023-12-05T16:55:02.291Z,38.42
2023-12-05T16:57:30.638Z,36.50
2023-12-05T16:59:57.681Z,38.58
2023-12-05T17:02:24.624Z,37.53
2023-12-05T17:04:51.368Z,40.03
2023-12-05T17:07:18.427Z,37.97
2023-12-05T17:09:45.424Z,41.28
2023-12-05T17:12:12.228Z,42.80
2023-12-05T17:14:41.167Z,40.33
2023-12-05T17:17:08.385Z,39.72
2023-12-05T17:19:35.572Z,38.20
2023-12-05T17:22:02.679Z,39.10
2023-12-05T17:24:29.446Z,38.38
2023-12-05T17:26:56.390Z,40.65
2023-12-05T17:29:23.729Z,37.70
2023-12-05T17:31:51.218Z,40.53
2023-12-05T17:34:20.191Z,38.47
2023-12-05T17:36:47.102Z,39.03
2023-12-05T17:39:14.993Z,37.90
2023-12-05T17:41:43.196Z,40.83
2023-12-05T17:44:10.986Z,43.97
2023-12-05T17:46:41.536Z,45.55
2023-12-05T17:49:08.376Z,39.50
2023-12-05T17:51:35.393Z,47.55
2023-12-05T17:54:02.250Z,48.60
2023-12-05T17:56:29.007Z,41.40
2023-12-05T17:58:57.173Z,40.95
2023-12-05T18:01:24.131Z,39.95
2023-12-05T18:03:51.029Z,38.95
2023-12-05T18:06:17.835Z,43.13
2023-12-05T18:08:46.822Z,43.95
2023-12-05T18:11:13.597Z,45.42
2023-12-05T18:13:40.687Z,40.92
2023-12-05T18:16:08.258Z,37.50
2023-12-05T18:18:35.322Z,46.63
2023-12-05T18:21:03.210Z,40.35
2023-12-05T18:23:29.865Z,40.28
2023-12-05T18:25:59.643Z,46.83
2023-12-05T18:28:26.525Z,43.55
2023-12-05T18:30:54.567Z,42.05
2023-12-05T18:33:21.800Z,45.47
2023-12-05T18:35:49.366Z,42.15
2023-12-05T18:38:16.300Z,39.70
2023-12-05T18:40:43.252Z,49.40
2023-12-05T18:43:13.135Z,45.00
2023-12-05T18:45:59.160Z,43.10
2023-12-05T18:48:26.407Z,44.35
2023-12-05T18:50:53.201Z,47.70
2023-12-05T18:53:20.526Z,47.47
2023-12-05T18:55:47.336Z,47.63
2023-12-05T18:58:17.226Z,45.95
2023-12-05T19:00:44.149Z,42.13
2023-12-05T19:03:14.311Z,51.97
2023-12-05T19:05:44.162Z,48.72
2023-12-05T19:10:53.705Z,46.85
2023-12-05T19:13:20.518Z,49.78
2023-12-05T19:15:50.423Z,46.83
2023-12-05T19:18:17.416Z,48.30
2023-12-05T19:20:44.492Z,52.50
2023-12-05T19:23:11.543Z,52.70
2023-12-05T19:25:40.317Z,59.58
2023-12-05T19:28:09.146Z,54.67
2023-12-05T19:30:41.543Z,52.25
2023-12-05T19:33:13.910Z,50.80
2023-12-05T19:35:42.773Z,48.25
2023-12-05T19:38:10.656Z,55.03
2023-12-05T19:40:37.999Z,56.55
2023-12-05T19:43:06.453Z,55.42
2023-12-05T19:45:33.853Z,57.95
2023-12-05T19:48:00.983Z,56.17
2023-12-05T19:50:31.757Z,59.90
2023-12-05T19:52:59.648Z,55.67
2023-12-05T19:55:26.340Z,58.10
2023-12-05T19:57:53.669Z,52.75
2023-12-05T20:00:23.640Z,49.53
2023-12-05T20:02:50.572Z,56.00
2023-12-05T20:05:19.478Z,56.47
2023-12-05T20:07:46.941Z,53.35
2023-12-05T20:10:14.745Z,57.30
2023-12-05T20:12:41.654Z,60.53
2023-12-05T20:15:11.086Z,50.35
2023-12-05T20:17:38.334Z,51.20
2023-12-05T20:20:06.674Z,55.60
2023-12-05T20:22:35.239Z,51.65
2023-12-05T20:25:07.532Z,51.45
2023-12-05T20:27:36.246Z,58.78
2023-12-05T20:30:08.772Z,52.58
2023-12-05T20:32:40.322Z,49.70
2023-12-05T20:35:10.249Z,54.45
2023-12-05T20:37:39.574Z,59.50
2023-12-05T20:40:07.051Z,52.30
2023-12-05T20:42:33.978Z,56.15
2023-12-05T20:45:01.310Z,46.42
2023-12-05T20:47:28.725Z,48.97
2023-12-05T20:49:55.575Z,42.85
2023-12-05T20:52:24.330Z,56.03
2023-12-05T20:54:51.561Z,45.22
2023-12-05T20:57:18.402Z,53.58
2023-12-05T20:59:45.292Z,52.78
2023-12-05T21:02:12.429Z,53.08
2023-12-05T21:04:39.438Z,46.58
2023-12-05T21:07:06.518Z,53.50
2023-12-05T21:09:33.378Z,46.50
2023-12-05T21:12:00.371Z,47.70
2023-12-05T21:14:27.901Z,55.65
2023-12-05T21:17:02.777Z,49.20
2023-12-05T21:19:29.590Z,46.22
2023-12-05T21:21:56.319Z,49.03
2023-12-05T21:24:23.415Z,50.63
2023-12-05T21:26:50.214Z,47.50
2023-12-05T21:29:16.989Z,54.30
2023-12-05T21:31:43.709Z,50.25
2023-12-05T21:34:10.586Z,45.65
2023-12-05T21:36:37.392Z,50.33
2023-12-05T21:39:05.013Z,46.65
2023-12-05T21:41:31.772Z,48.03
2023-12-05T21:43:58.554Z,45.60
2023-12-05T21:46:30.288Z,51.75
2023-12-05T21:48:57.913Z,49.05
2023-12-05T21:51:24.857Z,53.78
2023-12-05T21:53:52.603Z,45.15
2023-12-05T21:56:19.531Z,57.15
2023-12-05T21:58:46.314Z,44.63
2023-12-05T22:01:15.447Z,50.58
2023-12-05T22:03:43.402Z,50.25
2023-12-05T22:06:10.989Z,52.45
2023-12-05T22:08:38.148Z,49.38
2023-12-05T22:11:05.660Z,48.50
2023-12-05T22:13:33.621Z,55.05
2023-12-05T22:16:02.113Z,50.67
2023-12-05T22:18:29.768Z,50.88
2023-12-05T22:20:57.530Z,48.05
2023-12-05T22:23:25.799Z,58.03
2023-12-05T22:25:53.523Z,54.15
2023-12-05T22:28:20.268Z,51.33
2023-12-05T22:30:47.107Z,51.25
2023-12-05T22:33:14.349Z,45.60
2023-12-05T22:35:43.148Z,53.30
2023-12-05T22:38:12.079Z,53.30
2023-12-05T22:40:39.025Z,64.68
2023-12-05T22:43:05.903Z,57.22
2023-12-05T22:45:33.068Z,55.63
2023-12-05T22:47:59.939Z,57.95
2023-12-05T22:50:26.738Z,52.50
2023-12-05T22:52:54.211Z,51.88
2023-12-05T22:55:21.584Z,52.67
2023-12-05T22:57:50.493Z,60.55
2023-12-05T23:00:26.823Z,56.40
2023-12-05T23:02:57.392Z,60.60
2023-12-05T23:05:24.830Z,49.78
2023-12-05T23:07:52.287Z,57.88
2023-12-05T23:10:19.579Z,54.67
2023-12-05T23:12:46.649Z,55.17
2023-12-05T23:15:14.393Z,55.17
2023-12-05T23:17:42.102Z,55.47
2023-12-05T23:20:11.283Z,53.40
2023-12-05T23:22:38.442Z,53.58
2023-12-05T23:25:06.253Z,52.42
2023-12-05T23:27:33.492Z,59.90
2023-12-05T23:30:00.369Z,55.90
2023-12-05T23:32:27.363Z,53.33
2023-12-05T23:34:54.296Z,55.17
2023-12-05T23:37:25.187Z,62.30
2023-12-05T23:39:52.358Z,55.08
2023-12-05T23:42:19.297Z,57.38
2023-12-05T23:44:46.549Z,53.22
2023-12-05T23:47:13.362Z,61.53
2023-12-05T23:49:40.200Z,61.15
2023-12-05T23:52:07.215Z,56.83
2023-12-05T23:54:35.253Z,52.42
2023-12-05T23:57:02.491Z,59.20
2023-12-05T23:59:29.623Z,58.13
